Latest Coastal Weather Observations for Hindmarsh Island

IDS60701

Issued at 2:01 am CST Wednesday 4 May 2016 (issued every 10 minutes, with the page automatically refreshed every 10 minutes)

About coastal observations | Map of coastal stations | Coastal observations for SA | Marine services | Other Formats
Station Details ID: 023894 Name: HINDMARSH ISLAND AWS Lat: -35.52 Lon: 138.82 Height: 11.0 m
Data from the previous 72 hours. | See also: Recent months at Hindmarsh Island
Date/Time
CST
Temp

°C
Wind Pressure Rain
since 9am
mm
Weather Cloud Vis
km
Sea
Height
m
Swell
Dir
 
Speed
knots
Gust
knots
hPa Trend Height
m
Period
s
Dir
04/02:00am 12.5 WNW 6 8 1013.0 - 1.8 - - - - - - -
04/01:30am 12.6 WNW 7 8 1012.8 - 1.8 - - - - - - -
04/01:00am 12.8 WNW 8 9 1012.9 - 1.8 - - - - - - -
04/12:30am 13.3 WNW 7 9 1012.9 - 1.8 - - - - - - -
04/12:00am 12.9 WNW 7 9 1012.9 - 1.8 - - - - - - -
 
Date/Time
CST
Temp

°C
Wind Pressure Rain
since 9am
mm
Weather Cloud Vis
km
Sea
Height
m
Swell
Dir
 
Speed
knots
Gust
knots
hPa Trend Height
m
Period
s
Dir
03/11:30pm 13.4 WNW 8 10 1012.8 - 1.8 - - - - - - -
03/11:00pm 13.2 NW 7 9 1012.8 - 1.8 - - - - - - -
03/10:30pm 14.1 W 7 10 1012.8 - 1.8 - - - - - - -
03/10:00pm 14.4 W 10 14 1012.7 - 1.8 - - - - - - -
03/09:30pm 14.6 W 10 14 1012.4 - 1.8 - - - - - - -
03/09:00pm 14.9 W 11 15 1012.2 - 1.8 - - - - - - -
03/08:30pm 14.8 W 10 14 1011.9 - 1.8 - - - - - - -
03/08:00pm 14.9 W 11 13 1011.6 - 1.8 - - - - - - -
03/07:30pm 15.0 WSW 14 21 1011.1 - 1.8 - - - - - - -
03/07:00pm 15.0 SW 19 24 1010.4 - 1.8 - - - - - - -
03/06:30pm 15.5 W 10 15 1010.1 - 1.8 - - - - - - -
03/06:00pm 15.3 WNW 9 12 1009.4 - 1.8 - - - - - - -
03/05:30pm 15.3 W 10 13 1008.9 - 1.8 - - - - - - -
03/05:00pm 15.3 W 11 15 1008.5 - 1.8 - - - - - - -
03/04:30pm 15.1 WSW 12 17 1008.2 - 1.6 - - - - - - -
03/04:02pm 14.6 WSW 17 27 1007.9 - 1.6 - - - - - - -
03/04:00pm 14.5 WSW 19 27 1007.8 - 1.6 - - - - - - -
03/03:38pm 14.7 SW 21 32 1007.3 - 1.6 - - - - - - -
03/03:37pm 14.7 SW 21 32 1007.3 - 1.6 - - - - - - -
03/03:30pm 15.6 WSW 17 23 1007.2 - 1.6 - - - - - - -
03/03:00pm 14.6 WSW 18 26 1006.6 - 1.6 - - - - - - -
03/02:46pm 14.8 WSW 15 21 1006.4 - 1.6 - - - - - - -
03/02:30pm 14.7 SW 23 28 1006.1 - 1.4 - - - - - - -
03/02:00pm 15.8 WSW 18 23 1005.7 - 1.2 - - - - - - -
03/01:30pm 15.2 SW 24 31 1005.7 - 0.6 - - - - - - -
03/01:23pm 16.8 SW 24 30 1005.6 - 0.6 - - - - - - -
03/01:22pm 16.8 SW 24 30 1005.6 - 0.6 - - - - - - -
03/01:00pm 18.0 W 16 27 1005.3 - 0.6 - - - - - - -
03/12:59pm 18.1 W 15 27 1005.4 - 0.6 - - - - - - -
03/12:58pm 18.1 W 15 27 1005.4 - 0.6 - - - - - - -
03/12:30pm 18.6 W 18 24 1005.5 - 0.6 - - - - - - -
03/12:00pm 17.3 W 20 29 1005.7 - 0.6 - - - - - - -
03/11:33am 19.5 W 22 32 1005.4 - 0.6 - - - - - - -
03/11:32am 19.5 W 22 32 1005.4 - 0.6 - - - - - - -
03/11:30am 19.4 W 23 32 1005.2 - 0.6 - - - - - - -
03/11:00am 19.3 W 23 34 1005.3 - 0.6 - - - - - - -
03/10:31am 18.5 W 21 31 1005.1 - 0.6 - - - - - - -
03/10:30am 18.5 W 21 31 1005.1 - 0.6 - - - - - - -
03/10:00am 17.1 W 17 23 1005.2 - 0.6 - - - - - - -
03/09:30am 15.9 W 20 28 1005.0 - 0.6 - - - - - - -
03/09:00am 16.4 W 18 30 1004.3 - 0.6 Rain Cloudy 5 - - - -
03/08:42am 16.7 WNW 15 25 1004.3 - 0.2 - - - - - - -
03/08:30am 16.6 W 16 21 1004.1 - 0.2 - - - - - - -
03/08:00am 16.5 NW 18 26 1003.8 - 0.0 - - - - - - -
03/07:30am 16.6 NW 18 26 1003.5 - 0.0 - - - - - - -
03/07:05am 17.3 NW 20 31 1003.2 - 0.0 - - - - - - -
03/07:04am 17.3 NW 20 31 1003.2 - 0.0 - - - - - - -
03/07:00am 17.3 NW 20 29 1003.3 - 0.0 - - - - - - -
03/06:30am 17.2 NW 20 30 1003.4 - 0.0 - - - - - - -
03/06:10am 17.6 NW 21 33 1003.4 - 0.0 - - - - - - -
03/06:09am 17.6 NW 21 33 1003.4 - 0.0 - - - - - - -
03/06:00am 17.5 NW 22 30 1003.4 - 0.0 - - - - - - -
03/05:52am 17.4 NW 22 32 1003.4 - 0.0 - - - - - - -
03/05:50am 17.5 NW 22 32 1003.3 - 0.0 - - - - - - -
03/05:30am 17.4 NW 18 25 1003.9 - 0.0 - - - - - - -
03/05:07am 17.2 NW 15 26 1003.7 - 0.0 - - - - - - -
03/05:06am 17.2 NW 15 26 1003.7 - 0.0 - - - - - - -
03/05:00am 17.0 NW 15 23 1004.0 - 0.0 - - - - - - -
03/04:30am 17.3 NW 21 31 1003.7 - 0.0 - - - - - - -
03/04:06am 16.7 NW 17 27 1004.0 - 0.0 - - - - - - -
03/04:00am 16.7 NNW 19 27 1003.8 - 0.0 - - - - - - -
03/03:44am 17.2 NW 21 32 1004.3 - 0.0 - - - - - - -
03/03:43am 17.2 NW 21 32 1004.3 - 0.0 - - - - - - -
03/03:30am 17.5 NW 18 27 1004.3 - 0.0 - - - - - - -
03/03:07am 17.4 NW 19 29 1004.3 - 0.0 - - - - - - -
03/03:06am 17.4 NW 19 29 1004.3 - 0.0 - - - - - - -
03/03:00am 17.5 NNW 21 29 1004.3 - 0.0 - - - - - - -
03/02:42am 17.3 NW 22 32 1004.5 - 0.0 - - - - - - -
03/02:41am 17.3 NW 22 32 1004.5 - 0.0 - - - - - - -
03/02:30am 17.4 NW 23 32 1004.5 - 0.0 - - - - - - -
03/02:05am 17.4 NW 22 32 1004.7 - 0.0 - - - - - - -
03/02:04am 17.4 NW 22 32 1004.7 - 0.0 - - - - - - -
03/02:00am 17.4 NW 21 30 1004.7 - 0.0 - - - - - - -
03/01:45am 17.5 NW 19 29 1005.1 - 0.0 - - - - - - -
03/01:33am 17.4 NW 19 29 1005.9 - 0.0 - - - - - - -
03/01:30am 17.5 NW 20 29 1005.8 - 0.0 - - - - - - -
03/01:12am 17.5 NW 20 30 1006.3 - 0.0 - - - - - - -
03/01:11am 17.6 NW 20 30 1006.3 - 0.0 - - - - - - -
03/01:00am 17.6 NW 20 29 1006.5 - 0.0 - - - - - - -
03/12:36am 17.5 NW 19 29 1006.7 - 0.0 - - - - - - -
03/12:35am 17.5 NW 19 29 1006.7 - 0.0 - - - - - - -
03/12:30am 17.4 NW 18 25 1006.9 - 0.0 - - - - - - -
03/12:05am 17.4 NW 16 26 1007.1 - 0.0 - - - - - - -
03/12:04am 17.4 NW 16 26 1007.1 - 0.0 - - - - - - -
03/12:00am 17.4 NW 17 26 1007.2 - 0.0 - - - - - - -
 
Date/Time
CST
Temp

°C
Wind Pressure Rain
since 9am
mm
Weather Cloud Vis
km
Sea
Height
m
Swell
Dir
 
Speed
knots
Gust
knots
hPa Trend Height
m
Period
s
Dir
02/11:30pm 17.7 NW 19 30 1007.7 - 0.0 - - - - - - -
02/11:00pm 17.6 NW 22 32 1008.0 - 0.0 - - - - - - -
02/10:30pm 17.6 NW 21 32 1007.7 - 0.0 - - - - - - -
02/10:00pm 17.3 NW 20 30 1008.1 - 0.0 - - - - - - -
02/09:39pm 17.4 NW 21 31 1008.0 - 0.0 - - - - - - -
02/09:37pm 17.4 NW 21 31 1007.9 - 0.0 - - - - - - -
02/09:30pm 17.3 NW 21 30 1008.1 - 0.0 - - - - - - -
02/09:00pm 16.5 NW 18 23 1008.4 - 0.0 - - - - - - -
02/08:30pm 17.1 NW 17 28 1008.7 - 0.0 - - - - - - -
02/08:02pm 17.2 WNW 19 33 1008.8 - 0.0 - - - - - - -
02/08:01pm 17.2 WNW 19 33 1008.8 - 0.0 - - - - - - -
02/08:00pm 17.0 WNW 19 27 1009.0 - 0.0 - - - - - - -
02/07:42pm 17.1 NW 18 29 1008.9 - 0.0 - - - - - - -
02/07:41pm 17.1 NW 18 29 1008.9 - 0.0 - - - - - - -
02/07:30pm 17.0 NW 15 22 1009.0 - 0.0 - - - - - - -
02/07:09pm 16.8 NW 18 28 1008.9 - 0.0 - - - - - - -
02/07:08pm 16.8 NW 18 28 1008.9 - 0.0 - - - - - - -
02/07:00pm 17.1 NW 20 28 1008.8 - 0.0 - - - - - - -
02/06:30pm 17.6 WNW 16 27 1008.7 - 0.0 - - - - - - -
02/06:04pm 18.6 NW 15 30 1008.3 - 0.0 - - - - - - -
02/06:03pm 18.6 NW 15 30 1008.3 - 0.0 - - - - - - -
02/06:00pm 18.5 NW 15 22 1008.5 - 0.0 - - - - - - -
02/05:30pm 18.0 NW 14 19 1008.3 - 0.0 - - - - - - -
02/05:00pm 18.3 NW 17 22 1008.4 - 0.0 - - - - - - -
02/04:30pm 19.0 NW 18 26 1008.5 - 0.0 - - - - - - -
02/04:05pm 19.3 NW 18 28 1008.8 - 0.0 - - - - - - -
02/04:03pm 19.2 NW 18 28 1008.9 - 0.0 - - - - - - -
02/04:00pm 18.9 NW 20 28 1008.8 - 0.0 - - - - - - -
02/03:37pm 19.4 NW 18 28 1008.9 - 0.0 - - - - - - -
02/03:30pm 19.3 NW 20 29 1009.0 - 0.0 - - - - - - -
02/03:06pm 19.3 NW 19 29 1009.2 - 0.0 - - - - - - -
02/03:05pm 19.3 NW 19 29 1009.2 - 0.0 - - - - - - -
02/03:00pm 19.2 NW 19 27 1009.2 - 0.0 - - - - - - -
02/02:39pm 19.6 NW 19 29 1009.4 - 0.0 - - - - - - -
02/02:38pm 19.6 NW 19 29 1009.4 - 0.0 - - - - - - -
02/02:30pm 18.9 NW 21 30 1009.4 - 0.0 - - - - - - -
02/02:25pm 19.1 NW 18 30 1009.4 - 0.0 - - - - - - -
02/02:24pm 19.1 NW 19 30 1009.4 - 0.0 - - - - - - -
02/02:00pm 19.4 NW 20 26 1009.6 - 0.0 - - - - - - -
02/01:43pm 19.7 NW 20 31 1009.7 - 0.0 - - - - - - -
02/01:42pm 19.7 NW 20 31 1009.7 - 0.0 - - - - - - -
02/01:30pm 19.6 NW 22 28 1009.9 - 0.0 - - - - - - -
02/01:00pm 18.7 NW 21 32 1010.3 - 0.0 - - - - - - -
02/12:38pm 19.5 NW 19 31 1010.3 - 0.0 - - - - - - -
02/12:37pm 19.5 NW 19 31 1010.3 - 0.0 - - - - - - -
02/12:30pm 19.3 NW 19 26 1010.6 - 0.0 - - - - - - -
02/12:21pm 19.1 NW 19 29 1010.7 - 0.0 - - - - - - -
02/12:20pm 19.1 NW 19 29 1010.7 - 0.0 - - - - - - -
02/12:00pm 18.3 NW 19 26 1011.0 - 0.0 - - - - - - -
02/11:43am 18.6 NW 20 30 1011.0 - 0.0 - - - - - - -
02/11:42am 18.6 NW 20 30 1011.0 - 0.0 - - - - - - -
02/11:30am 18.4 NW 17 26 1011.3 - 0.0 - - - - - - -
02/11:00am 16.3 NW 14 19 1011.8 - 0.0 - - - - - - -
02/10:30am 17.7 NW 19 30 1012.1 - 0.0 - - - - - - -
02/10:26am 17.9 NW 17 30 1012.1 - 0.0 - - - - - - -
02/10:25am 17.9 NW 17 30 1012.1 - 0.0 - - - - - - -
02/10:00am 18.1 NW 17 26 1012.2 - 0.0 - - - - - - -
02/09:30am 17.5 NW 18 25 1012.5 - 0.0 - - - - - - -
02/09:00am 16.5 NW 16 24 1012.6 - 0.0 - - - - - - -
02/08:30am 16.9 NW 14 21 1012.6 - 0.0 - - - - - - -
02/08:00am 15.4 NW 10 14 1012.5 - 0.0 - - - - - - -
02/07:30am 14.8 NW 10 15 1012.6 - 0.0 - - - - - - -
02/07:00am 13.6 NW 7 11 1012.7 - 0.0 - - - - - - -
02/06:30am 11.9 NNW 6 8 1012.6 - 0.0 - - - - - - -
02/06:00am 12.1 NNE 6 8 1012.9 - 0.0 - - - - - - -
02/05:30am 12.7 N 6 8 1012.8 - 0.0 - - - - - - -
02/05:00am 12.0 N 6 8 1013.0 - 0.0 - - - - - - -
02/04:30am 12.3 N 7 9 1013.3 - 0.0 - - - - - - -
02/04:00am 13.1 NNE 6 9 1013.4 - 0.0 - - - - - - -
02/03:30am 13.3 N 7 8 1013.7 - 0.0 - - - - - - -
02/03:00am 13.7 N 8 11 1014.2 - 0.0 - - - - - - -
02/02:30am 13.6 N 8 11 1014.6 - 0.0 - - - - - - -
02/02:00am 12.9 N 8 10 1014.8 - 0.0 - - - - - - -
02/01:30am 12.2 N 8 10 1015.0 - 0.0 - - - - - - -
02/01:00am 12.3 N 6 8 1015.3 - 0.0 - - - - - - -
02/12:30am 11.9 N 5 6 1015.6 - 0.0 - - - - - - -
02/12:00am 11.7 N 5 7 1016.0 - 0.0 - - - - - - -
 
Date/Time
CST
Temp

°C
Wind Pressure Rain
since 9am
mm
Weather Cloud Vis
km
Sea
Height
m
Swell
Dir
 
Speed
knots
Gust
knots
hPa Trend Height
m
Period
s
Dir
01/11:30pm 12.2 N 5 6 1016.4 - 0.0 - - - - - - -
01/11:00pm 11.7 NNW 6 7 1016.6 - 0.0 - - - - - - -
01/10:30pm 11.7 NNW 5 6 1017.0 - 0.0 - - - - - - -
01/10:00pm 12.2 NNW 5 6 1017.3 - 0.0 - - - - - - -
01/09:30pm 12.4 NNW 5 6 1017.5 - 0.0 - - - - - - -
01/09:00pm 12.5 NNW 6 7 1017.6 - 0.0 - - - - - - -
01/08:30pm 12.9 NNW 6 8 1017.6 - 0.0 - - - - - - -
01/08:00pm 13.3 NNW 4 5 1017.4 - 0.0 - - - - - - -
01/07:30pm 13.6 NNW 4 5 1017.4 - 0.0 - - - - - - -
01/07:00pm 14.1 W 5 7 1017.4 - 0.0 - - - - - - -
01/06:30pm 15.2 WSW 6 8 1017.2 - 0.0 - - - - - - -
01/06:00pm 15.2 WSW 4 7 1017.0 - 0.0 - - - - - - -
01/05:30pm 15.3 SSW 8 11 1016.8 - 0.0 - - - - - - -
01/05:00pm 15.5 SSW 9 11 1016.8 - 0.0 - - - - - - -
01/04:30pm 15.9 SSW 11 13 1016.6 - 0.0 - - - - - - -
01/04:00pm 15.9 SSW 12 15 1016.5 - 0.0 - - - - - - -
01/03:30pm 16.4 SSW 12 15 1016.4 - 0.0 - - - - - - -
01/03:00pm 16.7 SW 13 17 1016.2 - 0.0 - - - - - - -
01/02:30pm 16.6 SW 15 19 1016.1 - 0.0 - - - - - - -
01/02:00pm 17.6 SW 15 19 1016.1 - 0.0 - - - - - - -
01/01:30pm 16.5 SW 15 19 1016.1 - 0.0 - - - - - - -
01/01:00pm 17.4 SW 16 21 1015.9 - 0.0 - - - - - - -
01/12:30pm 16.7 SSW 17 21 1016.0 - 0.0 - - - - - - -
01/12:00pm 17.8 SW 15 19 1016.2 - 0.0 - - - - - - -
01/11:30am 16.9 WSW 16 22 1016.5 - 0.0 - - - - - - -
01/11:00am 16.7 WSW 15 23 1016.5 - 0.0 - - - - - - -
01/10:30am 16.4 WSW 17 23 1016.4 - 0.0 - - - - - - -
01/10:00am 15.9 WSW 21 29 1015.9 - 0.0 - - - - - - -
01/09:30am 15.7 W 17 24 1015.9 - 0.0 - - - - - - -
01/09:00am 15.2 W 14 21 1015.5 - 2.6 Fine Mostly clear 17 - - - -
01/08:30am 14.4 W 15 20 1015.1 - 2.6 - - - - - - -
01/08:00am 13.6 W 14 19 1014.5 - 2.6 - - - - - - -
01/07:30am 13.1 W 15 19 1014.0 - 2.6 - - - - - - -
01/07:00am 13.2 W 15 22 1013.4 - 2.6 - - - - - - -
01/06:30am 13.0 W 14 20 1013.0 - 2.6 - - - - - - -
01/06:00am 13.4 W 17 23 1012.4 - 2.6 - - - - - - -
01/05:30am 13.5 W 17 25 1011.5 - 2.6 - - - - - - -
01/05:00am 13.6 W 18 25 1011.1 - 2.6 - - - - - - -
01/04:30am 13.3 W 15 21 1010.6 - 2.6 - - - - - - -
01/04:00am 12.8 W 15 21 1010.0 - 2.6 - - - - - - -
01/03:30am 13.1 W 13 18 1009.5 - 2.6 - - - - - - -
01/03:00am 13.2 WNW 17 25 1009.1 - 2.6 - - - - - - -
01/02:30am 12.9 W 13 18 1008.9 - 2.4 - - - - - - -

Other Formats:

Comma delimited format used in spreadsheet applications
http://www.bom.gov.au/fwo/IDS60701/IDS60701.94677.axf

JavaScript Object Notation format (JSON) in row-major order
http://www.bom.gov.au/fwo/IDS60701/IDS60701.94677.json